createdAt,value
2023-02-12T00:01:37.549Z,8.20
2023-02-12T00:04:06.290Z,8.20
2023-02-12T00:06:34.832Z,8.30
2023-02-12T00:09:03.279Z,8.20
2023-02-12T00:11:31.804Z,8.30
2023-02-12T00:14:00.604Z,8.30
2023-02-12T00:16:30.989Z,8.30
2023-02-12T00:19:00.996Z,8.30
2023-02-12T00:21:29.603Z,8.30
2023-02-12T00:23:58.218Z,8.30
2023-02-12T00:26:27.112Z,8.30
2023-02-12T00:28:55.909Z,8.30
2023-02-12T00:31:26.358Z,8.30
2023-02-12T00:33:56.885Z,8.30
2023-02-12T00:36:28.500Z,8.30
2023-02-12T00:38:58.766Z,8.40
2023-02-12T00:41:28.052Z,8.40
2023-02-12T00:43:56.579Z,8.40
2023-02-12T00:46:25.547Z,8.40
2023-02-12T00:48:56.558Z,8.40
2023-02-12T00:51:25.076Z,8.40
2023-02-12T00:53:53.618Z,8.40
2023-02-12T00:56:22.133Z,8.40
2023-02-12T00:58:50.646Z,8.40
2023-02-12T01:01:19.589Z,8.40
2023-02-12T01:03:48.056Z,8.40
2023-02-12T01:06:18.013Z,8.40
2023-02-12T01:08:46.550Z,8.40
2023-02-12T01:11:15.495Z,8.40
2023-02-12T01:13:43.972Z,8.40
2023-02-12T01:16:19.689Z,8.40
2023-02-12T01:18:49.478Z,8.40
2023-02-12T01:21:21.866Z,8.30
2023-02-12T01:23:50.905Z,8.30
2023-02-12T01:26:21.227Z,8.30
2023-02-12T01:28:52.956Z,8.30
2023-02-12T01:31:24.147Z,8.30
2023-02-12T01:33:53.884Z,8.30
2023-02-12T01:36:24.637Z,8.30
2023-02-12T01:38:53.304Z,8.30
2023-02-12T01:41:24.434Z,8.30
2023-02-12T01:44:11.894Z,8.30
2023-02-12T01:46:40.977Z,8.30
2023-02-12T01:49:12.812Z,8.30
2023-02-12T01:51:44.093Z,8.30
2023-02-12T01:54:16.298Z,8.30
2023-02-12T01:56:45.808Z,8.30
2023-02-12T01:59:14.986Z,8.30
2023-02-12T02:01:43.636Z,8.30
2023-02-12T02:04:16.896Z,8.30
2023-02-12T02:06:50.803Z,8.30
2023-02-12T02:09:20.614Z,8.40
2023-02-12T02:12:06.368Z,8.40
2023-02-12T02:14:35.188Z,8.40
2023-02-12T02:17:29.853Z,8.40
2023-02-12T02:20:17.790Z,8.30
2023-02-12T02:22:55.442Z,8.40
2023-02-12T02:25:58.479Z,8.40
2023-02-12T02:28:49.204Z,8.40
2023-02-12T02:31:24.050Z,8.40
2023-02-12T02:33:58.409Z,8.40
2023-02-12T02:36:33.080Z,8.40
2023-02-12T02:39:08.609Z,8.40
2023-02-12T02:41:44.260Z,8.40
2023-02-12T02:44:16.509Z,8.30
2023-02-12T02:46:49.228Z,8.40
2023-02-12T02:49:22.763Z,8.40
2023-02-12T02:51:56.691Z,8.40
2023-02-12T02:54:30.947Z,8.40
2023-02-12T02:57:05.826Z,8.40
2023-02-12T02:59:39.764Z,8.40
2023-02-12T03:02:15.530Z,8.40
2023-02-12T03:04:47.827Z,8.40
2023-02-12T03:07:21.729Z,8.40
2023-02-12T03:09:55.607Z,8.40
2023-02-12T03:12:32.282Z,8.40
2023-02-12T03:15:07.717Z,8.40
2023-02-12T03:17:42.118Z,8.40
2023-02-12T03:20:18.534Z,8.40
2023-02-12T03:22:52.668Z,8.40
2023-02-12T03:25:26.938Z,8.40
2023-02-12T03:28:00.997Z,8.40
2023-02-12T03:30:41.846Z,8.40
2023-02-12T03:33:21.593Z,8.40
2023-02-12T03:36:00.842Z,8.40
2023-02-12T03:38:36.776Z,8.40
2023-02-12T03:41:08.633Z,8.40
2023-02-12T03:43:42.944Z,8.30
2023-02-12T03:46:22.056Z,8.40
2023-02-12T03:49:00.767Z,8.30
2023-02-12T03:51:35.773Z,8.40
2023-02-12T03:54:05.920Z,8.40
2023-02-12T03:56:39.852Z,8.30
2023-02-12T03:59:08.558Z,8.20
2023-02-12T04:01:37.947Z,8.30
2023-02-12T04:04:12.454Z,8.30
2023-02-12T04:06:42.337Z,8.30
2023-02-12T04:09:13.418Z,8.20
2023-02-12T04:11:55.643Z,8.20
2023-02-12T04:14:32.508Z,8.20
2023-02-12T04:17:07.398Z,8.20
2023-02-12T04:19:56.935Z,8.30
2023-02-12T04:22:35.719Z,8.30
2023-02-12T04:25:19.718Z,8.30
2023-02-12T04:27:54.685Z,8.20
2023-02-12T04:30:29.768Z,8.20
2023-02-12T04:33:02.515Z,8.20
2023-02-12T04:35:36.480Z,8.20
2023-02-12T04:38:11.674Z,8.30
2023-02-12T04:40:42.159Z,8.20
2023-02-12T04:43:10.831Z,8.20
2023-02-12T04:45:40.067Z,8.20
2023-02-12T04:48:08.671Z,8.20
2023-02-12T04:50:42.916Z,8.20
2023-02-12T04:53:12.020Z,8.20
2023-02-12T04:55:40.632Z,8.20
2023-02-12T04:58:09.230Z,8.20
2023-02-12T05:00:37.822Z,8.20
2023-02-12T05:03:06.505Z,8.20
2023-02-12T05:05:35.137Z,8.20
2023-02-12T05:08:05.116Z,8.20
2023-02-12T05:10:33.548Z,8.20
2023-02-12T05:13:02.059Z,8.30
2023-02-12T05:15:30.708Z,8.30
2023-02-12T05:17:59.201Z,8.20
2023-02-12T05:20:27.652Z,8.20
2023-02-12T05:22:56.200Z,8.20
2023-02-12T05:25:26.099Z,8.20
2023-02-12T05:27:56.836Z,8.20
2023-02-12T05:30:25.568Z,8.20
2023-02-12T05:32:54.072Z,8.10
2023-02-12T05:35:22.597Z,8.10
2023-02-12T05:37:51.068Z,8.10
2023-02-12T05:40:20.123Z,8.10
2023-02-12T05:42:50.001Z,8.10
2023-02-12T05:45:18.689Z,8.10
2023-02-12T05:47:47.329Z,8.10
2023-02-12T05:50:16.033Z,8.10
2023-02-12T05:52:44.499Z,8.10
2023-02-12T05:55:13.146Z,8.10
2023-02-12T05:57:41.948Z,8.10
2023-02-12T06:00:13.488Z,8.10
2023-02-12T06:02:42.008Z,8.10
2023-02-12T06:05:10.457Z,8.10
2023-02-12T06:07:38.962Z,8.10
2023-02-12T06:10:08.838Z,8.00
2023-02-12T06:12:37.356Z,8.00
2023-02-12T06:15:06.176Z,8.00
2023-02-12T06:17:37.393Z,8.00
2023-02-12T06:20:06.408Z,8.00
2023-02-12T06:22:34.872Z,8.00
2023-02-12T06:25:03.426Z,8.00
2023-02-12T06:27:31.997Z,8.00
2023-02-12T06:30:00.522Z,8.00
2023-02-12T06:32:29.062Z,8.00
2023-02-12T06:34:59.038Z,8.00
2023-02-12T06:37:27.569Z,8.00
2023-02-12T06:39:56.041Z,7.90
2023-02-12T06:42:24.524Z,7.90
2023-02-12T06:44:53.194Z,8.00
2023-02-12T06:47:21.702Z,7.90
2023-02-12T06:49:50.358Z,8.00
2023-02-12T06:52:21.310Z,8.00
2023-02-12T06:54:49.811Z,8.00
2023-02-12T06:57:18.272Z,8.00
2023-02-12T06:59:46.823Z,8.00
2023-02-12T07:02:15.288Z,8.00
2023-02-12T07:04:43.806Z,7.90
2023-02-12T07:07:12.294Z,7.90
2023-02-12T07:09:42.123Z,7.90
2023-02-12T07:12:10.772Z,7.90
2023-02-12T07:14:39.411Z,8.00
2023-02-12T07:17:09.763Z,8.00
2023-02-12T07:19:38.636Z,8.00
2023-02-12T07:22:07.164Z,8.00
2023-02-12T07:24:35.632Z,8.00
2023-02-12T07:27:05.606Z,7.90
2023-02-12T07:29:34.155Z,8.00
2023-02-12T07:32:02.727Z,8.00
2023-02-12T07:34:31.468Z,8.00
2023-02-12T07:37:00.021Z,8.10
2023-02-12T07:39:28.463Z,8.10
2023-02-12T07:41:58.177Z,8.10
2023-02-12T07:44:28.107Z,8.20
2023-02-12T07:46:56.593Z,8.10
2023-02-12T07:49:25.149Z,8.10
2023-02-12T07:51:55.723Z,8.20
2023-02-12T07:54:24.509Z,8.20
2023-02-12T07:56:53.096Z,8.20
2023-02-12T07:59:22.187Z,8.20
2023-02-12T08:01:53.463Z,8.20
2023-02-12T08:04:24.195Z,8.30
2023-02-12T08:06:55.256Z,8.20
2023-02-12T08:09:25.806Z,8.20
2023-02-12T08:11:54.789Z,8.30
2023-02-12T08:14:24.165Z,8.30
2023-02-12T08:16:54.283Z,8.40
2023-02-12T08:19:26.565Z,8.40
2023-02-12T08:21:56.745Z,8.40
2023-02-12T08:24:25.577Z,8.40
2023-02-12T08:26:54.482Z,8.50
2023-02-12T08:29:25.347Z,8.60
2023-02-12T08:31:59.581Z,8.60
2023-02-12T08:34:30.662Z,8.50
2023-02-12T08:37:00.026Z,8.50
2023-02-12T08:39:31.233Z,8.50
2023-02-12T08:42:01.247Z,8.50
2023-02-12T08:44:30.149Z,8.60
2023-02-12T08:47:00.375Z,8.60
2023-02-12T08:49:30.381Z,8.70
2023-02-12T08:52:02.019Z,8.70
2023-02-12T08:54:32.835Z,8.70
2023-02-12T08:57:02.996Z,8.80
2023-02-12T08:59:32.062Z,8.70
2023-02-12T09:02:04.284Z,8.80
2023-02-12T09:04:32.921Z,8.80
2023-02-12T09:07:01.360Z,8.70
2023-02-12T09:09:30.025Z,8.80
2023-02-12T09:11:58.481Z,8.80
2023-02-12T09:14:27.038Z,8.90
2023-02-12T09:16:57.517Z,8.90
2023-02-12T09:19:27.742Z,8.90
2023-02-12T09:22:14.875Z,9.00
2023-02-12T09:24:43.542Z,9.00
2023-02-12T09:27:12.322Z,9.00
2023-02-12T09:29:41.107Z,9.00
2023-02-12T09:32:09.903Z,9.00
2023-02-12T09:34:40.008Z,9.00
2023-02-12T09:37:08.672Z,9.10
2023-02-12T09:39:37.298Z,9.10
2023-02-12T09:42:34.792Z,9.20
2023-02-12T09:45:11.708Z,9.30
2023-02-12T09:47:48.880Z,9.40
2023-02-12T09:50:33.237Z,9.50
2023-02-12T09:53:03.020Z,9.50
2023-02-12T09:55:34.381Z,9.50
2023-02-12T09:58:08.672Z,9.60
2023-02-12T10:00:37.283Z,9.60
2023-02-12T10:03:13.094Z,9.70
2023-02-12T10:05:52.497Z,9.70
2023-02-12T10:08:39.413Z,9.60
2023-02-12T10:11:33.456Z,9.70
2023-02-12T10:14:14.962Z,9.80
2023-02-12T10:16:51.936Z,9.90
2023-02-12T10:19:38.035Z,9.90
2023-02-12T10:22:20.988Z,9.90
2023-02-12T10:25:08.118Z,9.90
2023-02-12T10:27:42.873Z,9.90
2023-02-12T10:30:25.786Z,9.90
2023-02-12T10:33:00.556Z,10.00
2023-02-12T10:35:30.490Z,10.00
2023-02-12T10:38:07.720Z,10.10
2023-02-12T10:40:39.941Z,10.10
2023-02-12T10:43:10.332Z,10.20
2023-02-12T10:45:41.449Z,10.20
2023-02-12T10:48:13.190Z,10.30
2023-02-12T10:50:50.178Z,10.40
2023-02-12T10:53:24.411Z,10.50
2023-02-12T10:56:10.746Z,10.50
2023-02-12T10:58:42.667Z,10.40
2023-02-12T11:01:22.187Z,10.30
2023-02-12T11:03:50.908Z,10.40
2023-02-12T11:06:21.818Z,10.40
2023-02-12T11:08:53.648Z,10.40
2023-02-12T11:11:26.510Z,10.30
2023-02-12T11:13:56.528Z,10.30
2023-02-12T11:16:32.073Z,10.30
2023-02-12T11:19:03.150Z,10.20
2023-02-12T11:21:32.800Z,10.20
2023-02-12T11:24:24.015Z,10.20
2023-02-12T11:26:53.001Z,10.20
2023-02-12T11:29:25.271Z,10.10
2023-02-12T11:32:05.205Z,10.10
2023-02-12T11:34:34.097Z,10.10
2023-02-12T11:37:03.567Z,10.20
2023-02-12T11:39:36.713Z,10.30
2023-02-12T11:42:15.294Z,10.40
2023-02-12T11:44:49.334Z,10.40
2023-02-12T11:47:22.301Z,10.40
2023-02-12T11:49:54.029Z,10.40
2023-02-12T11:52:24.331Z,10.40
2023-02-12T11:54:57.611Z,10.30
2023-02-12T11:57:46.574Z,10.20
2023-02-12T12:00:18.588Z,10.10
2023-02-12T12:02:53.746Z,10.10
2023-02-12T12:05:23.807Z,10.10
2023-02-12T12:07:57.723Z,10.10
2023-02-12T12:10:39.890Z,10.10
2023-02-12T12:13:15.460Z,10.20
2023-02-12T12:16:05.535Z,10.30
2023-02-12T12:18:57.067Z,10.30
2023-02-12T12:21:32.271Z,10.40
2023-02-12T12:24:04.190Z,10.40
2023-02-12T12:26:36.057Z,10.40
2023-02-12T12:29:08.611Z,10.40
2023-02-12T12:31:40.714Z,10.40
2023-02-12T12:34:11.887Z,10.30
2023-02-12T12:37:05.557Z,10.20
2023-02-12T12:39:41.849Z,10.20
2023-02-12T12:42:35.566Z,10.20
2023-02-12T12:45:19.209Z,10.20
2023-02-12T12:48:03.135Z,10.20
2023-02-12T12:50:48.997Z,10.10
2023-02-12T12:53:31.221Z,10.00
2023-02-12T12:56:28.697Z,10.00
2023-02-12T12:59:30.090Z,10.00
2023-02-12T13:02:27.782Z,9.90
2023-02-12T13:05:25.772Z,9.90
2023-02-12T13:08:03.397Z,9.90
2023-02-12T13:10:39.232Z,9.90
2023-02-12T13:13:19.850Z,9.80
2023-02-12T13:15:58.639Z,9.80
2023-02-12T13:18:37.171Z,9.60
2023-02-12T13:21:15.363Z,9.50
2023-02-12T13:23:52.105Z,9.50
2023-02-12T13:26:27.485Z,9.50
2023-02-12T13:29:01.405Z,9.40
2023-02-12T13:31:34.299Z,9.50
2023-02-12T13:34:06.160Z,9.40
2023-02-12T13:36:37.476Z,9.40
2023-02-12T13:39:16.449Z,9.40
2023-02-12T13:41:51.263Z,9.40
2023-02-12T13:44:31.556Z,9.50
2023-02-12T13:47:11.316Z,9.50
2023-02-12T13:49:47.297Z,9.40
2023-02-12T13:52:26.907Z,9.50
2023-02-12T13:55:06.323Z,9.50
2023-02-12T13:57:35.364Z,9.50
2023-02-12T14:00:08.497Z,9.50
2023-02-12T14:02:49.664Z,9.50
2023-02-12T14:05:24.695Z,9.40
2023-02-12T14:07:55.822Z,9.40
2023-02-12T14:10:28.038Z,9.40
2023-02-12T14:13:10.205Z,9.40
2023-02-12T14:15:41.595Z,9.40
2023-02-12T14:18:34.175Z,9.40
2023-02-12T14:21:35.901Z,9.40
2023-02-12T14:24:52.753Z,9.40
2023-02-12T14:27:28.490Z,9.40
2023-02-12T14:30:25.722Z,9.40
2023-02-12T14:33:22.780Z,9.30
2023-02-12T14:36:17.920Z,9.30
2023-02-12T14:39:03.537Z,9.30
2023-02-12T14:41:42.073Z,9.30
2023-02-12T14:44:48.696Z,9.20
2023-02-12T14:47:54.009Z,9.20
2023-02-12T14:50:27.946Z,9.20
2023-02-12T14:53:05.670Z,9.20
2023-02-12T14:55:36.799Z,9.20
2023-02-12T14:58:07.972Z,9.20
2023-02-12T15:00:40.841Z,9.10
2023-02-12T15:03:22.644Z,9.10
2023-02-12T15:05:59.643Z,9.10
2023-02-12T15:08:37.338Z,9.10
2023-02-12T15:11:16.119Z,9.10
2023-02-12T15:13:50.504Z,9.00
2023-02-12T15:16:28.826Z,9.00
2023-02-12T15:19:02.382Z,9.00
2023-02-12T15:21:37.272Z,9.00
2023-02-12T15:24:09.346Z,9.00
2023-02-12T15:26:42.207Z,9.00
2023-02-12T15:29:20.806Z,9.00
2023-02-12T15:31:54.549Z,9.00
2023-02-12T15:34:26.310Z,9.00
2023-02-12T15:36:58.311Z,9.00
2023-02-12T15:39:30.418Z,9.00
2023-02-12T15:41:59.101Z,8.90
2023-02-12T15:44:30.000Z,9.00
2023-02-12T15:47:05.020Z,8.90
2023-02-12T15:49:36.913Z,8.90
2023-02-12T15:52:09.934Z,8.80
2023-02-12T15:54:40.786Z,8.80
2023-02-12T15:57:14.400Z,8.80
2023-02-12T15:59:43.231Z,8.80
2023-02-12T16:02:21.821Z,8.80
2023-02-12T16:04:50.880Z,8.80
2023-02-12T16:07:20.750Z,8.80
2023-02-12T16:09:51.974Z,8.80
2023-02-12T16:12:24.060Z,8.90
2023-02-12T16:14:55.321Z,8.80
2023-02-12T16:17:29.072Z,8.80
2023-02-12T16:20:00.238Z,8.80
2023-02-12T16:22:33.432Z,8.70
2023-02-12T16:25:04.203Z,8.70
2023-02-12T16:27:35.176Z,8.80
2023-02-12T16:30:11.221Z,8.80
2023-02-12T16:32:42.131Z,8.70
2023-02-12T16:35:29.987Z,8.70
2023-02-12T16:38:02.981Z,8.70
2023-02-12T16:40:36.010Z,8.70
2023-02-12T16:43:28.009Z,8.70
2023-02-12T16:46:07.789Z,8.70
2023-02-12T16:48:42.502Z,8.70
2023-02-12T16:51:24.300Z,8.70
2023-02-12T16:53:54.091Z,8.60
2023-02-12T16:56:25.609Z,8.60
2023-02-12T16:58:56.262Z,8.60
2023-02-12T17:01:26.539Z,8.60
2023-02-12T17:03:56.654Z,8.60
2023-02-12T17:06:27.471Z,8.50
2023-02-12T17:08:56.571Z,8.50
2023-02-12T17:11:27.928Z,8.50
2023-02-12T17:13:57.767Z,8.50
2023-02-12T17:16:31.193Z,8.50
2023-02-12T17:19:01.253Z,8.50
2023-02-12T17:21:32.649Z,8.50
2023-02-12T17:24:01.874Z,8.40
2023-02-12T17:26:32.117Z,8.40
2023-02-12T17:29:05.619Z,8.40
2023-02-12T17:31:34.565Z,8.40
2023-02-12T17:34:03.491Z,8.40
2023-02-12T17:36:32.268Z,8.40
2023-02-12T17:39:01.477Z,8.40
2023-02-12T17:41:31.918Z,8.40
2023-02-12T17:44:00.541Z,8.40
2023-02-12T17:46:31.334Z,8.40
2023-02-12T17:49:00.979Z,8.40
2023-02-12T17:51:29.926Z,8.40
2023-02-12T17:53:58.682Z,8.40
2023-02-12T17:56:27.701Z,8.40
2023-02-12T17:58:58.491Z,8.40
2023-02-12T18:01:27.828Z,8.30
2023-02-12T18:04:00.238Z,8.30
2023-02-12T18:06:30.608Z,8.40
2023-02-12T18:09:01.974Z,8.40
2023-02-12T18:11:32.262Z,8.30
2023-02-12T18:14:02.814Z,8.30
2023-02-12T18:16:35.278Z,8.30
2023-02-12T18:19:06.114Z,8.30
2023-02-12T18:21:35.525Z,8.30
2023-02-12T18:24:04.530Z,8.30
2023-02-12T18:26:33.673Z,8.30
2023-02-12T18:29:04.097Z,8.20
2023-02-12T18:31:33.060Z,8.20
2023-02-12T18:34:02.283Z,8.20
2023-02-12T18:36:31.119Z,8.20
2023-02-12T18:39:01.147Z,8.20
2023-02-12T18:41:32.084Z,8.20
2023-02-12T18:44:03.122Z,8.20
2023-02-12T18:46:33.452Z,8.20
2023-02-12T18:49:02.614Z,8.20
2023-02-12T18:51:37.369Z,8.20
2023-02-12T18:54:08.992Z,8.20
2023-02-12T18:56:41.133Z,8.20
2023-02-12T18:59:15.669Z,8.20
2023-02-12T19:01:46.728Z,8.20
2023-02-12T19:04:17.295Z,8.20
2023-02-12T19:06:48.411Z,8.20
2023-02-12T19:09:22.842Z,8.20
2023-02-12T19:11:52.941Z,8.20
2023-02-12T19:14:25.188Z,8.20
2023-02-12T19:16:55.065Z,8.20
2023-02-12T19:19:26.290Z,8.20
2023-02-12T19:21:55.695Z,8.20
2023-02-12T19:24:24.382Z,8.20
2023-02-12T19:26:54.026Z,8.20
2023-02-12T19:29:25.461Z,8.20
2023-02-12T19:31:54.377Z,8.20
2023-02-12T19:34:25.215Z,8.20
2023-02-12T19:36:54.188Z,8.20
2023-02-12T19:39:25.860Z,8.20
2023-02-12T19:41:56.641Z,8.20
2023-02-12T19:44:27.288Z,8.20
2023-02-12T19:46:57.019Z,8.20
2023-02-12T19:49:30.202Z,8.20
2023-02-12T19:51:59.262Z,8.20
2023-02-12T19:54:28.460Z,8.20
2023-02-12T19:57:00.024Z,8.10
2023-02-12T19:59:30.454Z,8.20
2023-02-12T20:01:59.372Z,8.20
2023-02-12T20:04:28.480Z,8.20
2023-02-12T20:06:57.168Z,8.10
2023-02-12T20:09:26.480Z,8.10
2023-02-12T20:11:57.172Z,8.10
2023-02-12T20:14:26.350Z,8.20
2023-02-12T20:16:59.003Z,8.10
2023-02-12T20:19:33.405Z,8.20
2023-02-12T20:22:03.510Z,8.20
2023-02-12T20:24:34.787Z,8.20
2023-02-12T20:27:04.309Z,8.10
2023-02-12T20:29:33.543Z,8.10
2023-02-12T20:32:04.921Z,8.10
2023-02-12T20:34:48.917Z,8.20
2023-02-12T20:37:19.572Z,8.20
2023-02-12T20:39:48.805Z,8.20
2023-02-12T20:42:17.793Z,8.20
2023-02-12T20:44:46.608Z,8.10
2023-02-12T20:47:17.140Z,8.20
2023-02-12T20:49:45.738Z,8.20
2023-02-12T20:52:14.799Z,8.20
2023-02-12T20:54:43.653Z,8.20
2023-02-12T20:57:12.334Z,8.20
2023-02-12T20:59:41.430Z,8.10
2023-02-12T21:02:11.645Z,8.20
2023-02-12T21:04:41.690Z,8.10
2023-02-12T21:07:13.108Z,8.10
2023-02-12T21:09:41.719Z,8.10
2023-02-12T21:12:10.414Z,8.10
2023-02-12T21:14:39.425Z,8.10
2023-02-12T21:17:15.135Z,8.10
2023-02-12T21:19:45.690Z,8.10
2023-02-12T21:22:14.381Z,8.10
2023-02-12T21:24:43.044Z,8.10
2023-02-12T21:27:12.175Z,8.10
2023-02-12T21:29:40.750Z,8.00
2023-02-12T21:32:09.692Z,8.00
2023-02-12T21:34:38.652Z,8.00
2023-02-12T21:37:09.032Z,8.00
2023-02-12T21:39:37.932Z,8.00
2023-02-12T21:42:06.680Z,8.00
2023-02-12T21:44:36.041Z,8.00
2023-02-12T21:47:23.295Z,8.00
2023-02-12T21:49:53.091Z,8.00
2023-02-12T21:52:23.388Z,8.00
2023-02-12T21:54:53.707Z,8.00
2023-02-12T21:57:22.232Z,8.00
2023-02-12T21:59:50.809Z,8.00
2023-02-12T22:02:19.343Z,8.00
2023-02-12T22:04:49.267Z,8.00
2023-02-12T22:07:17.769Z,7.90
2023-02-12T22:09:47.739Z,8.00
2023-02-12T22:12:16.360Z,7.90
2023-02-12T22:14:44.827Z,7.90
2023-02-12T22:17:13.257Z,7.90
2023-02-12T22:19:42.118Z,7.90
2023-02-12T22:22:10.540Z,7.90
2023-02-12T22:24:39.140Z,7.90
2023-02-12T22:27:08.984Z,7.90
2023-02-12T22:29:37.616Z,7.90
2023-02-12T22:32:06.425Z,7.90
2023-02-12T22:34:35.145Z,7.90
2023-02-12T22:37:03.595Z,7.90
2023-02-12T22:39:33.466Z,8.00
2023-02-12T22:42:02.032Z,7.90
2023-02-12T22:44:31.983Z,7.90
2023-02-12T22:47:00.623Z,7.90
2023-02-12T22:49:29.182Z,7.90
2023-02-12T22:51:57.583Z,7.90
2023-02-12T22:54:26.292Z,7.80
2023-02-12T22:56:54.821Z,7.80
2023-02-12T22:59:23.313Z,7.80
2023-02-12T23:01:53.399Z,7.80
2023-02-12T23:04:22.190Z,7.80
2023-02-12T23:06:50.692Z,7.80
2023-02-12T23:09:20.015Z,7.80
2023-02-12T23:11:48.884Z,7.80
2023-02-12T23:14:17.761Z,7.80
2023-02-12T23:16:46.402Z,7.80
2023-02-12T23:19:16.546Z,7.70
2023-02-12T23:21:45.085Z,7.80
2023-02-12T23:24:15.294Z,7.70
2023-02-12T23:26:43.983Z,7.80
2023-02-12T23:29:12.649Z,7.70
2023-02-12T23:31:41.262Z,7.80
2023-02-12T23:34:09.854Z,7.70
2023-02-12T23:36:39.832Z,7.80
2023-02-12T23:39:09.639Z,7.80
2023-02-12T23:41:38.165Z,7.80
2023-02-12T23:44:06.889Z,7.80
2023-02-12T23:46:35.381Z,7.80
2023-02-12T23:49:03.981Z,7.70
2023-02-12T23:51:32.861Z,7.70
2023-02-12T23:54:03.014Z,7.70
2023-02-12T23:56:31.534Z,7.80
2023-02-12T23:59:00.114Z,7.70
